sensor_id;sensor_type;location;lat;lon;timestamp;P1;durP1;ratioP1;P2;durP2;ratioP2
45114;SDS011;30877;43.706;10.780;2023-02-01T00:01:55;17.42;;;10.18;;
45114;SDS011;30877;43.706;10.780;2023-02-01T00:04:23;17.17;;;10.15;;
45114;SDS011;30877;43.706;10.780;2023-02-01T00:06:51;18.27;;;11.00;;
45114;SDS011;30877;43.706;10.780;2023-02-01T00:09:19;19.95;;;12.40;;
45114;SDS011;30877;43.706;10.780;2023-02-01T00:11:47;19.17;;;10.77;;
45114;SDS011;30877;43.706;10.780;2023-02-01T00:14:14;17.55;;;11.00;;
45114;SDS011;30877;43.706;10.780;2023-02-01T00:16:45;17.63;;;10.70;;
45114;SDS011;30877;43.706;10.780;2023-02-01T00:19:14;16.15;;;9.82;;
45114;SDS011;30877;43.706;10.780;2023-02-01T00:21:42;15.20;;;9.50;;
45114;SDS011;30877;43.706;10.780;2023-02-01T00:24:11;18.08;;;9.88;;
45114;SDS011;30877;43.706;10.780;2023-02-01T00:26:40;15.90;;;9.25;;
45114;SDS011;30877;43.706;10.780;2023-02-01T00:29:10;14.07;;;8.82;;
45114;SDS011;30877;43.706;10.780;2023-02-01T00:31:39;15.52;;;9.43;;
45114;SDS011;30877;43.706;10.780;2023-02-01T00:34:10;16.85;;;9.35;;
45114;SDS011;30877;43.706;10.780;2023-02-01T00:36:40;17.40;;;9.82;;
45114;SDS011;30877;43.706;10.780;2023-02-01T00:39:08;12.63;;;8.43;;
45114;SDS011;30877;43.706;10.780;2023-02-01T00:41:37;16.25;;;8.63;;
45114;SDS011;30877;43.706;10.780;2023-02-01T00:44:05;13.07;;;8.65;;
45114;SDS011;30877;43.706;10.780;2023-02-01T00:46:33;11.65;;;8.20;;
45114;SDS011;30877;43.706;10.780;2023-02-01T00:49:00;12.30;;;7.55;;
45114;SDS011;30877;43.706;10.780;2023-02-01T00:51:30;13.73;;;8.93;;
45114;SDS011;30877;43.706;10.780;2023-02-01T00:53:58;16.63;;;9.57;;
45114;SDS011;30877;43.706;10.780;2023-02-01T00:56:26;15.57;;;9.23;;
45114;SDS011;30877;43.706;10.780;2023-02-01T00:58:54;10.23;;;7.45;;
45114;SDS011;30877;43.706;10.780;2023-02-01T01:01:23;12.63;;;8.45;;
45114;SDS011;30877;43.706;10.780;2023-02-01T01:03:55;12.77;;;8.68;;
45114;SDS011;30877;43.706;10.780;2023-02-01T01:06:25;12.85;;;7.80;;
45114;SDS011;30877;43.706;10.780;2023-02-01T01:08:57;14.15;;;7.72;;
45114;SDS011;30877;43.706;10.780;2023-02-01T01:11:27;13.60;;;7.75;;
45114;SDS011;30877;43.706;10.780;2023-02-01T01:13:57;12.85;;;7.63;;
45114;SDS011;30877;43.706;10.780;2023-02-01T01:16:26;11.60;;;7.35;;
45114;SDS011;30877;43.706;10.780;2023-02-01T01:18:56;12.82;;;7.78;;
45114;SDS011;30877;43.706;10.780;2023-02-01T01:21:25;13.80;;;6.97;;
45114;SDS011;30877;43.706;10.780;2023-02-01T01:23:53;12.45;;;7.43;;
45114;SDS011;30877;43.706;10.780;2023-02-01T01:26:24;10.63;;;7.13;;
45114;SDS011;30877;43.706;10.780;2023-02-01T01:28:54;12.98;;;7.05;;
45114;SDS011;30877;43.706;10.780;2023-02-01T01:31:23;10.85;;;6.72;;
45114;SDS011;30877;43.706;10.780;2023-02-01T01:33:53;11.55;;;6.72;;
45114;SDS011;30877;43.706;10.780;2023-02-01T01:36:22;11.98;;;6.95;;
45114;SDS011;30877;43.706;10.780;2023-02-01T01:38:51;10.52;;;6.22;;
45114;SDS011;30877;43.706;10.780;2023-02-01T01:41:22;11.43;;;6.57;;
45114;SDS011;30877;43.706;10.780;2023-02-01T01:43:54;11.45;;;6.22;;
45114;SDS011;30877;43.706;10.780;2023-02-01T01:46:27;14.15;;;7.53;;
45114;SDS011;30877;43.706;10.780;2023-02-01T01:48:58;13.00;;;7.82;;
45114;SDS011;30877;43.706;10.780;2023-02-01T01:51:31;12.50;;;7.25;;
45114;SDS011;30877;43.706;10.780;2023-02-01T01:54:03;10.65;;;7.28;;
45114;SDS011;30877;43.706;10.780;2023-02-01T01:56:35;11.73;;;7.22;;
45114;SDS011;30877;43.706;10.780;2023-02-01T01:59:04;10.63;;;7.32;;
45114;SDS011;30877;43.706;10.780;2023-02-01T02:01:34;11.90;;;6.40;;
45114;SDS011;30877;43.706;10.780;2023-02-01T02:04:02;10.98;;;7.35;;
45114;SDS011;30877;43.706;10.780;2023-02-01T02:06:34;12.68;;;7.60;;
45114;SDS011;30877;43.706;10.780;2023-02-01T02:09:12;12.18;;;6.60;;
45114;SDS011;30877;43.706;10.780;2023-02-01T02:11:42;11.90;;;6.85;;
45114;SDS011;30877;43.706;10.780;2023-02-01T02:14:11;9.48;;;6.22;;
45114;SDS011;30877;43.706;10.780;2023-02-01T02:16:46;10.00;;;6.32;;
45114;SDS011;30877;43.706;10.780;2023-02-01T02:19:29;9.95;;;6.00;;
45114;SDS011;30877;43.706;10.780;2023-02-01T02:22:23;10.15;;;6.25;;
45114;SDS011;30877;43.706;10.780;2023-02-01T02:25:22;10.70;;;6.38;;
45114;SDS011;30877;43.706;10.780;2023-02-01T02:28:20;10.45;;;5.85;;
45114;SDS011;30877;43.706;10.780;2023-02-01T02:31:12;12.07;;;6.45;;
45114;SDS011;30877;43.706;10.780;2023-02-01T02:34:10;12.07;;;5.90;;
45114;SDS011;30877;43.706;10.780;2023-02-01T02:36:48;13.07;;;6.72;;
45114;SDS011;30877;43.706;10.780;2023-02-01T02:39:30;9.25;;;6.25;;
45114;SDS011;30877;43.706;10.780;2023-02-01T02:42:08;8.73;;;5.15;;
45114;SDS011;30877;43.706;10.780;2023-02-01T02:45:01;11.38;;;6.03;;
45114;SDS011;30877;43.706;10.780;2023-02-01T02:47:55;10.70;;;5.78;;
45114;SDS011;30877;43.706;10.780;2023-02-01T02:50:32;8.68;;;5.53;;
45114;SDS011;30877;43.706;10.780;2023-02-01T02:53:23;13.18;;;6.20;;
45114;SDS011;30877;43.706;10.780;2023-02-01T02:56:16;10.20;;;6.85;;
45114;SDS011;30877;43.706;10.780;2023-02-01T02:59:07;9.80;;;6.40;;
45114;SDS011;30877;43.706;10.780;2023-02-01T03:01:56;10.45;;;6.15;;
45114;SDS011;30877;43.706;10.780;2023-02-01T03:04:43;10.80;;;7.40;;
45114;SDS011;30877;43.706;10.780;2023-02-01T03:07:14;10.48;;;6.40;;
45114;SDS011;30877;43.706;10.780;2023-02-01T03:10:03;10.77;;;7.03;;
45114;SDS011;30877;43.706;10.780;2023-02-01T03:12:35;11.73;;;6.57;;
45114;SDS011;30877;43.706;10.780;2023-02-01T03:15:26;14.52;;;6.65;;
45114;SDS011;30877;43.706;10.780;2023-02-01T03:18:02;10.52;;;6.50;;
45114;SDS011;30877;43.706;10.780;2023-02-01T03:20:38;10.15;;;6.18;;
45114;SDS011;30877;43.706;10.780;2023-02-01T03:23:12;12.13;;;6.55;;
45114;SDS011;30877;43.706;10.780;2023-02-01T03:25:43;11.23;;;6.32;;
45114;SDS011;30877;43.706;10.780;2023-02-01T03:28:14;15.35;;;6.72;;
45114;SDS011;30877;43.706;10.780;2023-02-01T03:30:47;12.15;;;6.63;;
45114;SDS011;30877;43.706;10.780;2023-02-01T03:33:17;11.90;;;7.00;;
45114;SDS011;30877;43.706;10.780;2023-02-01T03:35:50;11.27;;;6.88;;
45114;SDS011;30877;43.706;10.780;2023-02-01T03:38:28;11.48;;;5.82;;
45114;SDS011;30877;43.706;10.780;2023-02-01T03:41:02;9.40;;;6.35;;
45114;SDS011;30877;43.706;10.780;2023-02-01T03:43:36;12.23;;;6.50;;
45114;SDS011;30877;43.706;10.780;2023-02-01T03:46:12;10.23;;;6.47;;
45114;SDS011;30877;43.706;10.780;2023-02-01T03:48:48;8.70;;;5.93;;
45114;SDS011;30877;43.706;10.780;2023-02-01T03:51:19;11.55;;;6.80;;
45114;SDS011;30877;43.706;10.780;2023-02-01T03:53:50;12.02;;;6.68;;
45114;SDS011;30877;43.706;10.780;2023-02-01T03:56:21;11.48;;;6.93;;
45114;SDS011;30877;43.706;10.780;2023-02-01T03:58:50;12.93;;;6.70;;
45114;SDS011;30877;43.706;10.780;2023-02-01T04:01:32;8.77;;;6.07;;
45114;SDS011;30877;43.706;10.780;2023-02-01T04:04:01;11.48;;;6.85;;
45114;SDS011;30877;43.706;10.780;2023-02-01T04:06:29;12.57;;;6.38;;
45114;SDS011;30877;43.706;10.780;2023-02-01T04:09:02;8.95;;;6.53;;
45114;SDS011;30877;43.706;10.780;2023-02-01T04:11:30;12.65;;;6.63;;
45114;SDS011;30877;43.706;10.780;2023-02-01T04:13:58;8.68;;;6.00;;
45114;SDS011;30877;43.706;10.780;2023-02-01T04:16:32;8.70;;;5.80;;
45114;SDS011;30877;43.706;10.780;2023-02-01T04:19:01;9.13;;;5.97;;
45114;SDS011;30877;43.706;10.780;2023-02-01T04:21:29;10.55;;;5.82;;
45114;SDS011;30877;43.706;10.780;2023-02-01T04:23:57;12.82;;;5.72;;
45114;SDS011;30877;43.706;10.780;2023-02-01T04:26:26;9.40;;;5.93;;
45114;SDS011;30877;43.706;10.780;2023-02-01T04:28:54;10.27;;;6.18;;
45114;SDS011;30877;43.706;10.780;2023-02-01T04:31:22;11.02;;;6.05;;
45114;SDS011;30877;43.706;10.780;2023-02-01T04:33:54;11.82;;;5.65;;
45114;SDS011;30877;43.706;10.780;2023-02-01T04:36:24;11.32;;;5.93;;
45114;SDS011;30877;43.706;10.780;2023-02-01T04:38:52;9.60;;;5.97;;
45114;SDS011;30877;43.706;10.780;2023-02-01T04:41:20;10.10;;;6.05;;
45114;SDS011;30877;43.706;10.780;2023-02-01T04:43:54;10.73;;;6.68;;
45114;SDS011;30877;43.706;10.780;2023-02-01T04:46:22;8.02;;;5.72;;
45114;SDS011;30877;43.706;10.780;2023-02-01T04:48:50;11.32;;;6.18;;
45114;SDS011;30877;43.706;10.780;2023-02-01T04:51:18;8.32;;;6.07;;
45114;SDS011;30877;43.706;10.780;2023-02-01T04:53:46;9.25;;;6.00;;
45114;SDS011;30877;43.706;10.780;2023-02-01T04:56:14;8.18;;;5.50;;
45114;SDS011;30877;43.706;10.780;2023-02-01T04:58:42;9.98;;;5.68;;
45114;SDS011;30877;43.706;10.780;2023-02-01T05:01:12;9.85;;;6.13;;
45114;SDS011;30877;43.706;10.780;2023-02-01T05:03:40;10.63;;;6.28;;
45114;SDS011;30877;43.706;10.780;2023-02-01T05:06:08;19.08;;;7.40;;
45114;SDS011;30877;43.706;10.780;2023-02-01T05:08:36;11.82;;;7.47;;
45114;SDS011;30877;43.706;10.780;2023-02-01T05:11:04;11.25;;;6.53;;
45114;SDS011;30877;43.706;10.780;2023-02-01T05:13:32;13.05;;;7.07;;
45114;SDS011;30877;43.706;10.780;2023-02-01T05:16:18;10.70;;;6.80;;
45114;SDS011;30877;43.706;10.780;2023-02-01T05:18:46;11.80;;;7.38;;
45114;SDS011;30877;43.706;10.780;2023-02-01T05:21:14;16.60;;;7.45;;
45114;SDS011;30877;43.706;10.780;2023-02-01T05:23:42;13.02;;;7.63;;
45114;SDS011;30877;43.706;10.780;2023-02-01T05:26:29;13.10;;;7.82;;
45114;SDS011;30877;43.706;10.780;2023-02-01T05:28:57;11.40;;;7.45;;
45114;SDS011;30877;43.706;10.780;2023-02-01T05:31:27;12.00;;;7.55;;
45114;SDS011;30877;43.706;10.780;2023-02-01T05:33:55;11.90;;;7.53;;
45114;SDS011;30877;43.706;10.780;2023-02-01T05:36:23;13.45;;;7.38;;
45114;SDS011;30877;43.706;10.780;2023-02-01T05:38:52;12.20;;;6.88;;
45114;SDS011;30877;43.706;10.780;2023-02-01T05:41:20;11.88;;;6.60;;
45114;SDS011;30877;43.706;10.780;2023-02-01T05:43:48;12.00;;;7.10;;
45114;SDS011;30877;43.706;10.780;2023-02-01T05:46:16;12.73;;;7.63;;
45114;SDS011;30877;43.706;10.780;2023-02-01T05:48:45;12.50;;;6.93;;
45114;SDS011;30877;43.706;10.780;2023-02-01T05:51:14;14.48;;;7.05;;
45114;SDS011;30877;43.706;10.780;2023-02-01T05:53:41;9.15;;;6.07;;
45114;SDS011;30877;43.706;10.780;2023-02-01T05:56:09;11.05;;;6.40;;
45114;SDS011;30877;43.706;10.780;2023-02-01T05:58:38;10.50;;;5.70;;
45114;SDS011;30877;43.706;10.780;2023-02-01T06:01:05;9.40;;;5.07;;
45114;SDS011;30877;43.706;10.780;2023-02-01T06:03:33;11.32;;;6.13;;
45114;SDS011;30877;43.706;10.780;2023-02-01T06:06:04;8.50;;;5.07;;
45114;SDS011;30877;43.706;10.780;2023-02-01T06:08:32;9.18;;;5.35;;
45114;SDS011;30877;43.706;10.780;2023-02-01T06:11:00;9.00;;;5.30;;
45114;SDS011;30877;43.706;10.780;2023-02-01T06:13:30;9.60;;;5.40;;
45114;SDS011;30877;43.706;10.780;2023-02-01T06:16:00;9.68;;;5.63;;
45114;SDS011;30877;43.706;10.780;2023-02-01T06:18:29;14.25;;;6.10;;
45114;SDS011;30877;43.706;10.780;2023-02-01T06:20:58;10.73;;;6.43;;
45114;SDS011;30877;43.706;10.780;2023-02-01T06:23:31;11.20;;;5.82;;
45114;SDS011;30877;43.706;10.780;2023-02-01T06:25:59;17.30;;;7.47;;
45114;SDS011;30877;43.706;10.780;2023-02-01T06:28:28;12.32;;;6.47;;
45114;SDS011;30877;43.706;10.780;2023-02-01T06:30:57;8.00;;;5.15;;
45114;SDS011;30877;43.706;10.780;2023-02-01T06:33:25;11.95;;;5.72;;
45114;SDS011;30877;43.706;10.780;2023-02-01T06:35:57;14.10;;;6.35;;
45114;SDS011;30877;43.706;10.780;2023-02-01T06:38:25;13.98;;;7.90;;
45114;SDS011;30877;43.706;10.780;2023-02-01T06:40:55;15.18;;;7.53;;
45114;SDS011;30877;43.706;10.780;2023-02-01T06:43:25;14.57;;;8.27;;
45114;SDS011;30877;43.706;10.780;2023-02-01T06:45:58;12.23;;;7.53;;
45114;SDS011;30877;43.706;10.780;2023-02-01T06:48:27;12.13;;;6.97;;
45114;SDS011;30877;43.706;10.780;2023-02-01T06:50:55;16.65;;;7.90;;
45114;SDS011;30877;43.706;10.780;2023-02-01T06:53:23;14.85;;;7.95;;
45114;SDS011;30877;43.706;10.780;2023-02-01T06:55:51;14.45;;;8.30;;
45114;SDS011;30877;43.706;10.780;2023-02-01T06:58:21;16.52;;;7.72;;
45114;SDS011;30877;43.706;10.780;2023-02-01T07:00:49;16.15;;;7.97;;
45114;SDS011;30877;43.706;10.780;2023-02-01T07:03:18;13.65;;;7.50;;
45114;SDS011;30877;43.706;10.780;2023-02-01T07:05:46;14.57;;;7.47;;
45114;SDS011;30877;43.706;10.780;2023-02-01T07:08:14;11.63;;;6.80;;
45114;SDS011;30877;43.706;10.780;2023-02-01T07:10:42;12.77;;;6.72;;
45114;SDS011;30877;43.706;10.780;2023-02-01T07:13:10;12.27;;;6.70;;
45114;SDS011;30877;43.706;10.780;2023-02-01T07:15:39;14.63;;;7.07;;
45114;SDS011;30877;43.706;10.780;2023-02-01T07:18:07;12.98;;;7.32;;
45114;SDS011;30877;43.706;10.780;2023-02-01T07:20:35;12.77;;;6.88;;
45114;SDS011;30877;43.706;10.780;2023-02-01T07:23:03;9.68;;;6.15;;
45114;SDS011;30877;43.706;10.780;2023-02-01T07:25:31;11.40;;;6.57;;
45114;SDS011;30877;43.706;10.780;2023-02-01T07:28:01;10.27;;;6.47;;
45114;SDS011;30877;43.706;10.780;2023-02-01T07:30:28;12.85;;;6.95;;
45114;SDS011;30877;43.706;10.780;2023-02-01T07:32:58;10.18;;;6.25;;
45114;SDS011;30877;43.706;10.780;2023-02-01T07:35:27;10.05;;;6.40;;
45114;SDS011;30877;43.706;10.780;2023-02-01T07:37:56;12.15;;;6.82;;
45114;SDS011;30877;43.706;10.780;2023-02-01T07:40:25;15.43;;;7.22;;
45114;SDS011;30877;43.706;10.780;2023-02-01T07:42:55;10.77;;;6.82;;
45114;SDS011;30877;43.706;10.780;2023-02-01T07:45:23;13.70;;;7.72;;
45114;SDS011;30877;43.706;10.780;2023-02-01T07:47:51;10.80;;;6.50;;
45114;SDS011;30877;43.706;10.780;2023-02-01T07:50:21;14.73;;;6.70;;
45114;SDS011;30877;43.706;10.780;2023-02-01T07:52:50;13.05;;;8.75;;
45114;SDS011;30877;43.706;10.780;2023-02-01T07:55:17;11.50;;;7.45;;
45114;SDS011;30877;43.706;10.780;2023-02-01T07:57:45;10.43;;;7.07;;
45114;SDS011;30877;43.706;10.780;2023-02-01T08:00:14;10.95;;;7.00;;
45114;SDS011;30877;43.706;10.780;2023-02-01T08:03:01;22.23;;;8.02;;
45114;SDS011;30877;43.706;10.780;2023-02-01T08:05:33;10.80;;;7.57;;
45114;SDS011;30877;43.706;10.780;2023-02-01T08:08:01;12.02;;;7.40;;
45114;SDS011;30877;43.706;10.780;2023-02-01T08:10:29;14.50;;;7.85;;
45114;SDS011;30877;43.706;10.780;2023-02-01T08:12:57;12.55;;;6.95;;
45114;SDS011;30877;43.706;10.780;2023-02-01T08:15:26;13.48;;;7.43;;
45114;SDS011;30877;43.706;10.780;2023-02-01T08:17:54;14.13;;;8.50;;
45114;SDS011;30877;43.706;10.780;2023-02-01T08:20:22;13.85;;;8.68;;
45114;SDS011;30877;43.706;10.780;2023-02-01T08:22:53;12.20;;;8.52;;
45114;SDS011;30877;43.706;10.780;2023-02-01T08:25:21;12.57;;;8.40;;
45114;SDS011;30877;43.706;10.780;2023-02-01T08:27:50;17.77;;;9.35;;
45114;SDS011;30877;43.706;10.780;2023-02-01T08:30:18;16.60;;;8.93;;
45114;SDS011;30877;43.706;10.780;2023-02-01T08:32:46;13.93;;;9.13;;
45114;SDS011;30877;43.706;10.780;2023-02-01T08:35:14;14.75;;;8.88;;
45114;SDS011;30877;43.706;10.780;2023-02-01T08:37:42;14.63;;;9.05;;
45114;SDS011;30877;43.706;10.780;2023-02-01T08:40:12;13.05;;;8.95;;
45114;SDS011;30877;43.706;10.780;2023-02-01T08:42:40;18.73;;;11.18;;
45114;SDS011;30877;43.706;10.780;2023-02-01T08:45:17;14.38;;;9.43;;
45114;SDS011;30877;43.706;10.780;2023-02-01T08:47:46;16.15;;;10.50;;
45114;SDS011;30877;43.706;10.780;2023-02-01T08:50:15;15.43;;;10.05;;
45114;SDS011;30877;43.706;10.780;2023-02-01T08:52:43;17.08;;;9.95;;
45114;SDS011;30877;43.706;10.780;2023-02-01T08:55:13;18.80;;;11.07;;
45114;SDS011;30877;43.706;10.780;2023-02-01T08:57:41;19.92;;;11.52;;
45114;SDS011;30877;43.706;10.780;2023-02-01T09:00:11;18.60;;;10.75;;
45114;SDS011;30877;43.706;10.780;2023-02-01T09:02:42;16.63;;;11.00;;
45114;SDS011;30877;43.706;10.780;2023-02-01T09:05:10;17.70;;;10.18;;
45114;SDS011;30877;43.706;10.780;2023-02-01T09:07:40;13.95;;;9.57;;
45114;SDS011;30877;43.706;10.780;2023-02-01T09:10:09;16.67;;;9.75;;
45114;SDS011;30877;43.706;10.780;2023-02-01T09:12:39;15.52;;;10.00;;
45114;SDS011;30877;43.706;10.780;2023-02-01T09:15:07;15.18;;;10.30;;
45114;SDS011;30877;43.706;10.780;2023-02-01T09:17:36;15.90;;;10.10;;
45114;SDS011;30877;43.706;10.780;2023-02-01T09:20:04;18.05;;;11.57;;
45114;SDS011;30877;43.706;10.780;2023-02-01T09:22:32;20.60;;;11.30;;
45114;SDS011;30877;43.706;10.780;2023-02-01T09:25:00;17.10;;;10.27;;
45114;SDS011;30877;43.706;10.780;2023-02-01T09:27:28;19.83;;;11.35;;
45114;SDS011;30877;43.706;10.780;2023-02-01T09:29:57;18.98;;;11.63;;
45114;SDS011;30877;43.706;10.780;2023-02-01T09:32:25;20.52;;;11.77;;
45114;SDS011;30877;43.706;10.780;2023-02-01T09:34:53;18.73;;;10.48;;
45114;SDS011;30877;43.706;10.780;2023-02-01T09:37:21;20.05;;;10.38;;
45114;SDS011;30877;43.706;10.780;2023-02-01T09:39:49;15.55;;;10.52;;
45114;SDS011;30877;43.706;10.780;2023-02-01T09:42:23;17.40;;;11.05;;
45114;SDS011;30877;43.706;10.780;2023-02-01T09:45:13;26.95;;;12.02;;
45114;SDS011;30877;43.706;10.780;2023-02-01T09:47:47;19.00;;;11.27;;
45114;SDS011;30877;43.706;10.780;2023-02-01T09:50:19;16.45;;;10.77;;
45114;SDS011;30877;43.706;10.780;2023-02-01T09:52:52;18.92;;;11.13;;
45114;SDS011;30877;43.706;10.780;2023-02-01T09:55:25;16.13;;;10.45;;
45114;SDS011;30877;43.706;10.780;2023-02-01T09:58:00;20.63;;;11.70;;
45114;SDS011;30877;43.706;10.780;2023-02-01T10:00:33;14.13;;;9.25;;
45114;SDS011;30877;43.706;10.780;2023-02-01T10:03:02;14.88;;;7.65;;
45114;SDS011;30877;43.706;10.780;2023-02-01T10:05:44;13.13;;;7.57;;
45114;SDS011;30877;43.706;10.780;2023-02-01T10:08:25;15.23;;;8.68;;
45114;SDS011;30877;43.706;10.780;2023-02-01T10:11:08;13.60;;;8.52;;
45114;SDS011;30877;43.706;10.780;2023-02-01T10:13:49;17.77;;;9.93;;
45114;SDS011;30877;43.706;10.780;2023-02-01T10:16:31;12.32;;;8.93;;
45114;SDS011;30877;43.706;10.780;2023-02-01T10:19:12;14.95;;;8.48;;
45114;SDS011;30877;43.706;10.780;2023-02-01T10:21:51;12.60;;;8.32;;
45114;SDS011;30877;43.706;10.780;2023-02-01T10:24:25;12.55;;;8.68;;
45114;SDS011;30877;43.706;10.780;2023-02-01T10:27:02;13.13;;;8.23;;
45114;SDS011;30877;43.706;10.780;2023-02-01T10:29:45;15.27;;;8.90;;
45114;SDS011;30877;43.706;10.780;2023-02-01T10:32:19;16.35;;;9.02;;
45114;SDS011;30877;43.706;10.780;2023-02-01T10:34:51;17.85;;;9.27;;
45114;SDS011;30877;43.706;10.780;2023-02-01T10:37:25;15.73;;;8.65;;
45114;SDS011;30877;43.706;10.780;2023-02-01T10:39:56;15.77;;;8.80;;
45114;SDS011;30877;43.706;10.780;2023-02-01T10:42:26;14.45;;;9.30;;
45114;SDS011;30877;43.706;10.780;2023-02-01T10:44:57;14.43;;;9.10;;
45114;SDS011;30877;43.706;10.780;2023-02-01T10:47:29;13.25;;;8.10;;
45114;SDS011;30877;43.706;10.780;2023-02-01T10:50:00;16.23;;;8.32;;
45114;SDS011;30877;43.706;10.780;2023-02-01T10:52:36;14.82;;;8.45;;
45114;SDS011;30877;43.706;10.780;2023-02-01T10:55:28;13.43;;;8.93;;
45114;SDS011;30877;43.706;10.780;2023-02-01T10:58:01;12.02;;;8.60;;
45114;SDS011;30877;43.706;10.780;2023-02-01T11:00:34;13.13;;;8.32;;
45114;SDS011;30877;43.706;10.780;2023-02-01T11:03:25;14.95;;;9.57;;
45114;SDS011;30877;43.706;10.780;2023-02-01T11:06:01;13.95;;;8.77;;
45114;SDS011;30877;43.706;10.780;2023-02-01T11:08:31;17.02;;;10.20;;
45114;SDS011;30877;43.706;10.780;2023-02-01T11:11:00;17.42;;;9.80;;
45114;SDS011;30877;43.706;10.780;2023-02-01T11:13:30;16.27;;;9.63;;
45114;SDS011;30877;43.706;10.780;2023-02-01T11:16:04;15.98;;;9.57;;
45114;SDS011;30877;43.706;10.780;2023-02-01T11:18:36;12.60;;;9.23;;
45114;SDS011;30877;43.706;10.780;2023-02-01T11:21:05;18.38;;;9.50;;
45114;SDS011;30877;43.706;10.780;2023-02-01T11:23:39;21.23;;;11.38;;
45114;SDS011;30877;43.706;10.780;2023-02-01T11:26:10;21.50;;;11.95;;
45114;SDS011;30877;43.706;10.780;2023-02-01T11:28:46;17.80;;;10.75;;
45114;SDS011;30877;43.706;10.780;2023-02-01T11:31:21;15.75;;;11.02;;
45114;SDS011;30877;43.706;10.780;2023-02-01T11:33:53;15.98;;;10.15;;
45114;SDS011;30877;43.706;10.780;2023-02-01T11:36:26;16.30;;;10.18;;
45114;SDS011;30877;43.706;10.780;2023-02-01T11:39:07;15.57;;;9.07;;
45114;SDS011;30877;43.706;10.780;2023-02-01T11:41:43;19.67;;;9.30;;
45114;SDS011;30877;43.706;10.780;2023-02-01T11:44:26;16.92;;;8.18;;
45114;SDS011;30877;43.706;10.780;2023-02-01T11:49:54;14.85;;;8.65;;
45114;SDS011;30877;43.706;10.780;2023-02-01T11:52:30;19.08;;;9.90;;
45114;SDS011;30877;43.706;10.780;2023-02-01T11:58:22;15.20;;;9.23;;
45114;SDS011;30877;43.706;10.780;2023-02-01T12:01:22;19.02;;;10.45;;
45114;SDS011;30877;43.706;10.780;2023-02-01T12:07:16;16.77;;;9.85;;
45114;SDS011;30877;43.706;10.780;2023-02-01T12:09:55;18.02;;;10.23;;
45114;SDS011;30877;43.706;10.780;2023-02-01T12:12:36;16.75;;;11.05;;
45114;SDS011;30877;43.706;10.780;2023-02-01T12:15:15;14.13;;;9.07;;
45114;SDS011;30877;43.706;10.780;2023-02-01T12:21:04;13.80;;;9.07;;
45114;SDS011;30877;43.706;10.780;2023-02-01T12:23:49;18.98;;;9.10;;
45114;SDS011;30877;43.706;10.780;2023-02-01T12:26:35;16.13;;;8.75;;
45114;SDS011;30877;43.706;10.780;2023-02-01T12:29:24;17.80;;;10.25;;
45114;SDS011;30877;43.706;10.780;2023-02-01T12:32:11;15.73;;;8.77;;
45114;SDS011;30877;43.706;10.780;2023-02-01T12:37:59;20.08;;;11.00;;
45114;SDS011;30877;43.706;10.780;2023-02-01T12:40:47;17.08;;;9.70;;
45114;SDS011;30877;43.706;10.780;2023-02-01T12:43:28;19.45;;;13.27;;
45114;SDS011;30877;43.706;10.780;2023-02-01T12:46:06;19.05;;;11.68;;
45114;SDS011;30877;43.706;10.780;2023-02-01T12:48:40;16.13;;;9.73;;
45114;SDS011;30877;43.706;10.780;2023-02-01T12:53:46;16.67;;;9.48;;
45114;SDS011;30877;43.706;10.780;2023-02-01T12:56:21;14.43;;;10.07;;
45114;SDS011;30877;43.706;10.780;2023-02-01T12:58:52;18.85;;;10.52;;
45114;SDS011;30877;43.706;10.780;2023-02-01T13:01:25;20.33;;;12.15;;
45114;SDS011;30877;43.706;10.780;2023-02-01T13:03:59;21.48;;;14.30;;
45114;SDS011;30877;43.706;10.780;2023-02-01T13:06:35;33.80;;;21.52;;
45114;SDS011;30877;43.706;10.780;2023-02-01T13:09:09;51.42;;;28.30;;
45114;SDS011;30877;43.706;10.780;2023-02-01T13:11:47;50.30;;;28.15;;
45114;SDS011;30877;43.706;10.780;2023-02-01T13:14:21;50.55;;;29.00;;
45114;SDS011;30877;43.706;10.780;2023-02-01T13:16:57;28.45;;;17.02;;
45114;SDS011;30877;43.706;10.780;2023-02-01T13:19:40;31.00;;;16.85;;
45114;SDS011;30877;43.706;10.780;2023-02-01T13:22:14;35.90;;;20.02;;
45114;SDS011;30877;43.706;10.780;2023-02-01T13:24:50;32.28;;;18.77;;
45114;SDS011;30877;43.706;10.780;2023-02-01T13:27:22;23.80;;;14.88;;
45114;SDS011;30877;43.706;10.780;2023-02-01T13:29:55;25.00;;;16.48;;
45114;SDS011;30877;43.706;10.780;2023-02-01T13:32:39;24.65;;;16.42;;
45114;SDS011;30877;43.706;10.780;2023-02-01T13:41:52;23.83;;;13.25;;
45114;SDS011;30877;43.706;10.780;2023-02-01T13:44:25;20.70;;;10.40;;
45114;SDS011;30877;43.706;10.780;2023-02-01T13:46:58;19.98;;;7.38;;
45114;SDS011;30877;43.706;10.780;2023-02-01T13:49:30;13.68;;;6.57;;
45114;SDS011;30877;43.706;10.780;2023-02-01T13:52:04;12.13;;;6.32;;
45114;SDS011;30877;43.706;10.780;2023-02-01T13:54:33;14.18;;;5.55;;
45114;SDS011;30877;43.706;10.780;2023-02-01T13:57:04;14.02;;;4.80;;
45114;SDS011;30877;43.706;10.780;2023-02-01T14:08:39;13.00;;;4.47;;
45114;SDS011;30877;43.706;10.780;2023-02-01T14:11:37;7.75;;;3.38;;
45114;SDS011;30877;43.706;10.780;2023-02-01T14:23:10;8.10;;;3.25;;
45114;SDS011;30877;43.706;10.780;2023-02-01T14:25:44;6.75;;;2.95;;
45114;SDS011;30877;43.706;10.780;2023-02-01T14:28:23;9.60;;;3.40;;
45114;SDS011;30877;43.706;10.780;2023-02-01T14:30:56;10.75;;;3.70;;
45114;SDS011;30877;43.706;10.780;2023-02-01T14:33:27;7.10;;;2.65;;
45114;SDS011;30877;43.706;10.780;2023-02-01T14:35:58;8.50;;;2.90;;
45114;SDS011;30877;43.706;10.780;2023-02-01T14:38:31;6.40;;;2.88;;
45114;SDS011;30877;43.706;10.780;2023-02-01T14:41:11;8.70;;;3.65;;
45114;SDS011;30877;43.706;10.780;2023-02-01T14:43:49;6.90;;;3.08;;
45114;SDS011;30877;43.706;10.780;2023-02-01T14:46:18;9.25;;;3.38;;
45114;SDS011;30877;43.706;10.780;2023-02-01T14:48:48;8.63;;;3.60;;
45114;SDS011;30877;43.706;10.780;2023-02-01T14:51:23;12.13;;;4.00;;
45114;SDS011;30877;43.706;10.780;2023-02-01T14:53:52;5.38;;;3.63;;
45114;SDS011;30877;43.706;10.780;2023-02-01T14:56:20;13.93;;;3.60;;
45114;SDS011;30877;43.706;10.780;2023-02-01T14:58:50;9.55;;;4.47;;
45114;SDS011;30877;43.706;10.780;2023-02-01T15:01:24;13.50;;;5.72;;
45114;SDS011;30877;43.706;10.780;2023-02-01T15:04:00;15.52;;;5.95;;
45114;SDS011;30877;43.706;10.780;2023-02-01T15:06:32;11.60;;;5.55;;
45114;SDS011;30877;43.706;10.780;2023-02-01T15:09:08;7.40;;;4.03;;
45114;SDS011;30877;43.706;10.780;2023-02-01T15:11:55;9.40;;;4.53;;
45114;SDS011;30877;43.706;10.780;2023-02-01T15:14:25;8.07;;;3.15;;
45114;SDS011;30877;43.706;10.780;2023-02-01T15:16:54;7.22;;;2.90;;
45114;SDS011;30877;43.706;10.780;2023-02-01T15:19:24;10.95;;;3.53;;
45114;SDS011;30877;43.706;10.780;2023-02-01T15:21:54;6.47;;;2.65;;
45114;SDS011;30877;43.706;10.780;2023-02-01T15:24:24;5.70;;;2.47;;
45114;SDS011;30877;43.706;10.780;2023-02-01T15:26:54;8.73;;;3.05;;
45114;SDS011;30877;43.706;10.780;2023-02-01T15:29:23;8.05;;;3.58;;
45114;SDS011;30877;43.706;10.780;2023-02-01T15:31:54;7.53;;;3.30;;
45114;SDS011;30877;43.706;10.780;2023-02-01T15:34:33;10.27;;;4.07;;
45114;SDS011;30877;43.706;10.780;2023-02-01T15:37:13;9.85;;;3.58;;